createdAt,value
2023-04-22T00:01:12.858Z,100461.84
2023-04-22T00:03:42.230Z,100465.44
2023-04-22T00:06:10.344Z,100450.16
2023-04-22T00:08:38.218Z,100454.75
2023-04-22T00:11:06.649Z,100456.78
2023-04-22T00:13:34.597Z,100447.88
2023-04-22T00:16:02.495Z,100450.75
2023-04-22T00:18:30.319Z,100453.66
2023-04-22T00:20:59.555Z,100452.66
2023-04-22T00:23:27.408Z,100441.28
2023-04-22T00:25:55.206Z,100445.91
2023-04-22T00:28:23.014Z,100445.03
2023-04-22T00:30:50.838Z,100448.78
2023-04-22T00:33:18.660Z,100439.69
2023-04-22T00:35:47.777Z,100450.69
2023-04-22T00:38:17.119Z,100433.50
2023-04-22T00:40:44.900Z,100437.41
2023-04-22T00:43:14.909Z,100435.69
2023-04-22T00:45:44.280Z,100443.94
2023-04-22T00:48:13.999Z,100440.31
2023-04-22T00:50:42.017Z,100440.63
2023-04-22T00:53:09.854Z,100442.50
2023-04-22T00:55:39.189Z,100444.22
2023-04-22T00:58:07.931Z,100444.53
2023-04-22T01:00:36.123Z,100444.66
2023-04-22T01:03:04.916Z,100443.81
2023-04-22T01:05:33.228Z,100442.97
2023-04-22T01:08:01.537Z,100436.63
2023-04-22T01:10:30.400Z,100435.75
2023-04-22T01:12:59.661Z,100430.09
2023-04-22T01:15:28.671Z,100430.28
2023-04-22T01:17:57.345Z,100428.53
2023-04-22T01:20:28.124Z,100439.50
2023-04-22T01:22:57.482Z,100442.41
2023-04-22T01:25:27.516Z,100433.16
2023-04-22T01:27:56.341Z,100431.72
2023-04-22T01:30:24.337Z,100436.34
2023-04-22T01:32:52.402Z,100437.19
2023-04-22T01:35:21.959Z,100432.91
2023-04-22T01:37:50.023Z,100432.91
2023-04-22T01:40:19.835Z,100434.78
2023-04-22T01:42:49.947Z,100435.66
2023-04-22T01:45:18.467Z,100439.56
2023-04-22T01:47:46.336Z,100432.34
2023-04-22T01:50:14.485Z,100436.94
2023-04-22T01:52:42.287Z,100432.47
2023-04-22T01:55:11.327Z,100433.34
2023-04-22T01:57:39.129Z,100432.63
2023-04-22T02:00:10.252Z,100440.84
2023-04-22T02:02:40.883Z,100431.06
2023-04-22T02:05:09.940Z,100435.69
2023-04-22T02:07:37.779Z,100434.94
2023-04-22T02:10:06.441Z,100430.47
2023-04-22T02:12:34.511Z,100430.63
2023-04-22T02:15:02.324Z,100428.06
2023-04-22T02:17:31.479Z,100430.78
2023-04-22T02:19:59.509Z,100425.47
2023-04-22T02:22:29.479Z,100427.34
2023-04-22T02:24:57.329Z,100420.13
2023-04-22T02:27:25.104Z,100420.25
2023-04-22T02:29:53.212Z,100425.75
2023-04-22T02:32:21.080Z,100416.66
2023-04-22T02:34:50.721Z,100420.25
2023-04-22T02:37:19.070Z,100414.94
2023-04-22T02:39:47.021Z,100415.78
2023-04-22T02:42:14.827Z,100410.31
2023-04-22T02:44:42.634Z,100414.06
2023-04-22T02:47:13.849Z,100411.03
2023-04-22T02:49:41.989Z,100407.56
2023-04-22T02:52:12.000Z,100401.94
2023-04-22T02:54:39.828Z,100400.22
2023-04-22T02:57:07.891Z,100402.09
2023-04-22T02:59:36.185Z,100398.50
2023-04-22T03:02:06.913Z,100394.03
2023-04-22T03:04:49.518Z,100393.34
2023-04-22T03:07:18.870Z,100394.88
2023-04-22T03:09:46.748Z,100386.84
2023-04-22T03:12:14.604Z,100385.09
2023-04-22T03:14:42.558Z,100372.41
2023-04-22T03:17:10.689Z,100381.50
2023-04-22T03:19:39.330Z,100387.00
2023-04-22T03:22:07.544Z,100380.63
2023-04-22T03:24:36.739Z,100376.03
2023-04-22T03:27:07.459Z,100378.03
2023-04-22T03:29:35.728Z,100381.50
2023-04-22T03:32:03.665Z,100372.28
2023-04-22T03:34:31.614Z,100368.66
2023-04-22T03:36:59.562Z,100361.31
2023-04-22T03:39:27.911Z,100358.41
2023-04-22T03:41:57.127Z,100356.50
2023-04-22T03:44:25.266Z,100356.50
2023-04-22T03:46:53.584Z,100352.91
2023-04-22T03:49:26.091Z,100357.53
2023-04-22T03:51:57.252Z,100350.03
2023-04-22T03:54:26.410Z,100359.13
2023-04-22T03:56:54.424Z,100364.44
2023-04-22T03:59:25.453Z,100356.06
2023-04-22T04:01:54.161Z,100356.94
2023-04-22T04:04:26.725Z,100356.22
2023-04-22T04:07:01.601Z,100365.03
2023-04-22T04:09:30.015Z,100354.75
2023-04-22T04:11:58.102Z,100342.91
2023-04-22T04:14:30.739Z,100340.88
2023-04-22T04:16:58.980Z,100338.28
2023-04-22T04:19:29.906Z,100343.97
2023-04-22T04:21:57.969Z,100335.56
2023-04-22T04:24:28.289Z,100328.53
2023-04-22T04:27:03.136Z,100322.19
2023-04-22T04:29:39.839Z,100325.59
2023-04-22T04:32:14.236Z,100329.53
2023-04-22T04:34:43.685Z,100327.81
2023-04-22T04:37:12.719Z,100330.69
2023-04-22T04:39:59.358Z,100327.09
2023-04-22T04:42:34.446Z,100331.72
2023-04-22T04:45:09.365Z,100328.09
2023-04-22T04:47:37.348Z,100334.44
2023-04-22T04:50:15.720Z,100327.97
2023-04-22T04:52:44.874Z,100328.69
2023-04-22T04:55:12.749Z,100324.91
2023-04-22T04:57:41.178Z,100322.88
2023-04-22T05:00:11.464Z,100311.75
2023-04-22T05:02:39.472Z,100309.16
2023-04-22T05:05:08.576Z,100311.75
2023-04-22T05:07:38.119Z,100309.88
2023-04-22T05:10:08.759Z,100314.50
2023-04-22T05:12:37.302Z,100309.00
2023-04-22T05:15:08.782Z,100305.25
2023-04-22T05:17:39.587Z,100299.78
2023-04-22T05:20:08.729Z,100298.75
2023-04-22T05:22:37.454Z,100308.88
2023-04-22T05:25:06.392Z,100320.69
2023-04-22T05:27:34.709Z,100318.81
2023-04-22T05:30:04.173Z,100317.84
2023-04-22T05:32:34.354Z,100325.03
2023-04-22T05:35:04.080Z,100319.94
2023-04-22T05:37:32.277Z,100320.97
2023-04-22T05:40:00.184Z,100318.94
2023-04-22T05:42:28.494Z,100320.53
2023-04-22T05:44:56.352Z,100323.06
2023-04-22T05:47:24.322Z,100320.19
2023-04-22T05:49:52.666Z,100326.38
2023-04-22T05:52:31.972Z,100319.75
2023-04-22T05:55:07.875Z,100327.97
2023-04-22T05:57:35.856Z,100322.34
2023-04-22T06:00:07.638Z,100324.75
2023-04-22T06:02:41.045Z,100325.47
2023-04-22T06:05:10.203Z,100322.22
2023-04-22T06:07:41.007Z,100321.78
2023-04-22T06:10:10.386Z,100328.66
2023-04-22T06:12:38.231Z,100328.50
2023-04-22T06:15:07.309Z,100324.44
2023-04-22T06:17:35.560Z,100326.88
2023-04-22T06:20:03.704Z,100325.69
2023-04-22T06:22:32.694Z,100321.78
2023-04-22T06:25:01.938Z,100323.91
2023-04-22T06:27:29.804Z,100326.47
2023-04-22T06:29:57.840Z,100318.78
2023-04-22T06:32:25.825Z,100309.94
2023-04-22T06:34:53.649Z,100312.19
2023-04-22T06:37:21.571Z,100313.44
2023-04-22T06:39:49.736Z,100314.50
2023-04-22T06:42:39.071Z,100302.56
2023-04-22T06:45:26.135Z,100310.03
2023-04-22T06:48:11.106Z,100308.06
2023-04-22T06:50:59.269Z,100310.38
2023-04-22T06:53:27.736Z,100309.75
2023-04-22T06:55:55.647Z,100308.13
2023-04-22T06:58:25.017Z,100313.38
2023-04-22T07:00:52.904Z,100310.69
2023-04-22T07:03:20.988Z,100308.88
2023-04-22T07:05:59.604Z,100313.22
2023-04-22T07:08:27.801Z,100309.97
2023-04-22T07:10:57.795Z,100307.06
2023-04-22T07:13:36.875Z,100310.31
2023-04-22T07:16:04.984Z,100304.16
2023-04-22T07:18:32.951Z,100297.94
2023-04-22T07:21:00.860Z,100294.81
2023-04-22T07:23:28.706Z,100297.56
2023-04-22T07:25:56.790Z,100290.47
2023-04-22T07:28:24.738Z,100294.22
2023-04-22T07:30:55.430Z,100290.41
2023-04-22T07:33:23.467Z,100289.88
2023-04-22T07:35:51.424Z,100280.72
2023-04-22T07:38:19.329Z,100290.69
2023-04-22T07:40:47.103Z,100279.44
2023-04-22T07:43:15.077Z,100276.47
2023-04-22T07:45:42.988Z,100284.34
2023-04-22T07:48:12.292Z,100281.84
2023-04-22T07:50:40.429Z,100274.38
2023-04-22T07:53:10.256Z,100269.47
2023-04-22T07:55:38.295Z,100270.09
2023-04-22T07:58:06.849Z,100256.03
2023-04-22T08:00:35.625Z,100258.56
2023-04-22T08:03:04.108Z,100258.31
2023-04-22T08:05:33.560Z,100263.38
2023-04-22T08:08:01.485Z,100278.84
2023-04-22T08:10:29.365Z,100262.19
2023-04-22T08:12:57.235Z,100255.53
2023-04-22T08:15:25.522Z,100260.97
2023-04-22T08:17:53.415Z,100261.91
2023-04-22T08:20:21.508Z,100250.97
2023-04-22T08:22:57.101Z,100259.84
2023-04-22T08:25:25.043Z,100251.66
2023-04-22T08:27:52.902Z,100255.34
2023-04-22T08:30:21.467Z,100234.84
2023-04-22T08:32:49.430Z,100237.69
2023-04-22T08:35:17.403Z,100235.66
2023-04-22T08:37:45.248Z,100245.09
2023-04-22T08:40:14.868Z,100255.84
2023-04-22T08:42:44.845Z,100242.50
2023-04-22T08:45:14.466Z,100238.94
2023-04-22T08:47:43.783Z,100243.25
2023-04-22T08:50:12.348Z,100240.75
2023-04-22T08:52:40.216Z,100246.09
2023-04-22T08:55:09.167Z,100239.09
2023-04-22T08:57:40.207Z,100228.50
2023-04-22T09:00:09.950Z,100231.09
2023-04-22T09:02:39.367Z,100224.94
2023-04-22T09:05:10.156Z,100210.53
2023-04-22T09:07:39.649Z,100213.34
2023-04-22T09:10:08.974Z,100201.47
2023-04-22T09:12:39.788Z,100206.00
2023-04-22T09:15:09.327Z,100222.47
2023-04-22T09:17:39.261Z,100203.16
2023-04-22T09:20:08.845Z,100203.66
2023-04-22T09:22:41.785Z,100208.03
2023-04-22T09:25:17.158Z,100211.31
2023-04-22T09:27:49.800Z,100205.41
2023-04-22T09:30:20.041Z,100204.38
2023-04-22T09:32:55.346Z,100209.34
2023-04-22T09:35:31.049Z,100211.13
2023-04-22T09:37:59.961Z,100209.44
2023-04-22T09:40:28.668Z,100210.31
2023-04-22T09:42:59.883Z,100212.47
2023-04-22T09:45:41.899Z,100202.69
2023-04-22T09:48:11.899Z,100206.31
2023-04-22T09:50:41.153Z,100209.34
2023-04-22T09:53:11.358Z,100205.09
2023-04-22T09:55:42.576Z,100195.09
2023-04-22T09:58:13.047Z,100200.66
2023-04-22T10:00:43.507Z,100190.44
2023-04-22T10:03:11.569Z,100182.34
2023-04-22T10:05:41.011Z,100184.94
2023-04-22T10:08:10.772Z,100194.56
2023-04-22T10:10:39.417Z,100180.50
2023-04-22T10:13:08.047Z,100185.84
2023-04-22T10:15:40.693Z,100176.25
2023-04-22T10:18:11.835Z,100191.03
2023-04-22T10:20:43.251Z,100191.69
2023-04-22T10:23:15.743Z,100194.25
2023-04-22T10:25:43.404Z,100192.91
2023-04-22T10:28:14.396Z,100205.56
2023-04-22T10:30:43.767Z,100181.16
2023-04-22T10:33:39.794Z,100183.50
2023-04-22T10:36:16.806Z,100189.53
2023-04-22T10:39:18.405Z,100194.84
2023-04-22T10:41:53.582Z,100189.06
2023-04-22T10:44:22.894Z,100196.72
2023-04-22T10:47:00.205Z,100190.09
2023-04-22T10:49:31.887Z,100193.28
2023-04-22T10:52:01.324Z,100208.91
2023-04-22T10:54:57.735Z,100202.69
2023-04-22T10:57:36.193Z,100202.91
2023-04-22T11:00:22.259Z,100204.38
2023-04-22T11:02:56.002Z,100199.44
2023-04-22T11:05:27.180Z,100201.78
2023-04-22T11:07:57.056Z,100210.31
2023-04-22T11:10:44.652Z,100215.69
2023-04-22T11:13:15.022Z,100207.53
2023-04-22T11:15:44.478Z,100222.75
2023-04-22T11:18:16.351Z,100212.66
2023-04-22T11:20:44.174Z,100209.25
2023-04-22T11:23:12.108Z,100203.00
2023-04-22T11:25:39.954Z,100209.22
2023-04-22T11:28:07.835Z,100202.59
2023-04-22T11:30:35.823Z,100197.00
2023-04-22T11:33:03.815Z,100196.16
2023-04-22T11:35:34.528Z,100202.34
2023-04-22T11:38:04.340Z,100199.78
2023-04-22T11:40:36.043Z,100203.44
2023-04-22T11:43:07.814Z,100203.88
2023-04-22T11:45:37.354Z,100196.81
2023-04-22T11:48:07.104Z,100198.13
2023-04-22T11:50:38.283Z,100196.41
2023-04-22T11:53:14.249Z,100195.75
2023-04-22T11:55:43.446Z,100191.47
2023-04-22T11:58:12.935Z,100178.88
2023-04-22T12:00:43.227Z,100177.19
2023-04-22T12:03:15.859Z,100197.69
2023-04-22T12:05:47.351Z,100184.00
2023-04-22T12:08:17.414Z,100181.63
2023-04-22T12:10:47.026Z,100181.84
2023-04-22T12:13:20.888Z,100206.06
2023-04-22T12:15:49.774Z,100194.53
2023-04-22T12:18:17.575Z,100196.66
2023-04-22T12:20:46.757Z,100192.81
2023-04-22T12:23:15.831Z,100183.81
2023-04-22T12:25:44.763Z,100197.72
2023-04-22T12:28:13.429Z,100192.16
2023-04-22T12:30:41.294Z,100205.88
2023-04-22T12:33:10.126Z,100186.16
2023-04-22T12:35:38.364Z,100200.50
2023-04-22T12:38:07.611Z,100186.78
2023-04-22T12:40:35.526Z,100190.63
2023-04-22T12:43:06.059Z,100201.53
2023-04-22T12:45:34.143Z,100193.03
2023-04-22T12:48:02.017Z,100198.38
2023-04-22T12:50:30.101Z,100207.31
2023-04-22T12:52:58.017Z,100205.63
2023-04-22T12:55:27.540Z,100202.41
2023-04-22T12:57:55.586Z,100198.97
2023-04-22T13:00:25.437Z,100202.63
2023-04-22T13:02:53.443Z,100195.34
2023-04-22T13:05:21.719Z,100207.31
2023-04-22T13:07:56.484Z,100200.06
2023-04-22T13:10:33.402Z,100205.00
2023-04-22T13:13:16.978Z,100202.41
2023-04-22T13:15:46.209Z,100187.00
2023-04-22T13:18:14.088Z,100201.97
2023-04-22T13:20:42.706Z,100204.38
2023-04-22T13:23:10.789Z,100209.50
2023-04-22T13:25:40.298Z,100210.56
2023-04-22T13:28:08.111Z,100244.63
2023-04-22T13:30:35.997Z,100234.38
2023-04-22T13:33:03.847Z,100227.75
2023-04-22T13:35:32.026Z,100226.03
2023-04-22T13:38:00.048Z,100214.94
2023-04-22T13:40:28.301Z,100216.03
2023-04-22T13:42:57.480Z,100225.25
2023-04-22T13:45:26.142Z,100219.25
2023-04-22T13:47:55.098Z,100231.44
2023-04-22T13:50:23.820Z,100222.25
2023-04-22T13:52:52.054Z,100226.09
2023-04-22T13:55:19.966Z,100227.13
2023-04-22T13:57:47.949Z,100227.13
2023-04-22T14:00:17.731Z,100220.31
2023-04-22T14:02:46.409Z,100219.44
2023-04-22T14:05:14.390Z,100219.22
2023-04-22T14:07:42.254Z,100219.00
2023-04-22T14:10:12.117Z,100215.13
2023-04-22T14:12:40.838Z,100220.28
2023-04-22T14:15:10.880Z,100216.16
2023-04-22T14:17:40.898Z,100214.69
2023-04-22T14:20:10.213Z,100220.84
2023-04-22T14:22:38.414Z,100227.91
2023-04-22T14:25:07.332Z,100222.75
2023-04-22T14:27:35.487Z,100225.13
2023-04-22T14:30:04.870Z,100211.63
2023-04-22T14:32:33.223Z,100216.53
2023-04-22T14:35:02.454Z,100221.22
2023-04-22T14:37:31.711Z,100222.94
2023-04-22T14:39:59.632Z,100219.72
2023-04-22T14:42:28.271Z,100225.69
2023-04-22T14:44:56.096Z,100220.34
2023-04-22T14:47:24.528Z,100226.31
2023-04-22T14:49:53.613Z,100224.81
2023-04-22T14:52:23.068Z,100224.81
2023-04-22T14:54:52.100Z,100220.72
2023-04-22T14:57:20.389Z,100218.34
2023-04-22T14:59:48.173Z,100220.50
2023-04-22T15:02:16.784Z,100229.03
2023-04-22T15:04:44.940Z,100233.06
2023-04-22T15:07:12.792Z,100227.09
2023-04-22T15:09:42.318Z,100227.97
2023-04-22T15:12:10.320Z,100236.88
2023-04-22T15:14:38.564Z,100217.66
2023-04-22T15:17:07.069Z,100224.50
2023-04-22T15:19:35.077Z,100226.59
2023-04-22T15:22:03.058Z,100218.00
2023-04-22T15:24:30.942Z,100229.34
2023-04-22T15:27:00.646Z,100232.09
2023-04-22T15:29:29.005Z,100235.47
2023-04-22T15:31:57.807Z,100235.91
2023-04-22T15:34:25.983Z,100236.31
2023-04-22T15:36:54.349Z,100228.38
2023-04-22T15:39:22.159Z,100229.66
2023-04-22T15:41:50.106Z,100228.16
2023-04-22T15:44:19.448Z,100226.44
2023-04-22T15:46:47.507Z,100228.13
2023-04-22T15:49:15.765Z,100229.16
2023-04-22T15:51:43.651Z,100225.94
2023-04-22T15:54:11.616Z,100233.63
2023-04-22T15:56:39.492Z,100225.72
2023-04-22T15:59:07.268Z,100225.91
2023-04-22T16:01:36.601Z,100223.31
2023-04-22T16:04:05.308Z,100224.81
2023-04-22T16:06:33.265Z,100225.19
2023-04-22T16:09:01.028Z,100220.06
2023-04-22T16:11:30.400Z,100225.16
2023-04-22T16:13:58.297Z,100231.94
2023-04-22T16:16:27.573Z,100231.28
2023-04-22T16:18:56.958Z,100239.84
2023-04-22T16:21:25.132Z,100241.28
2023-04-22T16:23:52.962Z,100246.34
2023-04-22T16:26:20.824Z,100255.06
2023-04-22T16:28:48.705Z,100252.66
2023-04-22T16:31:18.142Z,100257.56
2023-04-22T16:33:46.584Z,100251.75
2023-04-22T16:36:15.725Z,100256.63
2023-04-22T16:38:43.502Z,100256.38
2023-04-22T16:41:11.664Z,100249.31
2023-04-22T16:43:41.024Z,100246.13
2023-04-22T16:46:09.289Z,100246.50
2023-04-22T16:48:37.293Z,100247.75
2023-04-22T16:51:05.972Z,100248.84
2023-04-22T16:53:35.207Z,100255.63
2023-04-22T16:56:02.988Z,100258.13
2023-04-22T16:58:30.891Z,100255.75
2023-04-22T17:00:58.832Z,100246.78
2023-04-22T17:03:27.131Z,100258.03
2023-04-22T17:05:55.073Z,100255.69
2023-04-22T17:08:22.846Z,100255.88
2023-04-22T17:10:52.584Z,100256.94
2023-04-22T17:13:20.828Z,100258.34
2023-04-22T17:15:48.705Z,100258.78
2023-04-22T17:18:16.599Z,100267.25
2023-04-22T17:20:44.527Z,100263.81
2023-04-22T17:23:12.511Z,100269.56
2023-04-22T17:25:40.343Z,100261.66
2023-04-22T17:28:11.326Z,100269.09
2023-04-22T17:30:39.621Z,100266.72
2023-04-22T17:33:07.496Z,100270.53
2023-04-22T17:35:35.379Z,100267.97
2023-04-22T17:38:03.199Z,100271.97
2023-04-22T17:40:31.259Z,100268.53
2023-04-22T17:42:59.064Z,100272.34
2023-04-22T17:45:28.345Z,100272.16
2023-04-22T17:47:56.162Z,100270.63
2023-04-22T17:50:24.217Z,100272.75
2023-04-22T17:52:52.159Z,100269.31
2023-04-22T17:55:20.261Z,100274.00
2023-04-22T17:57:48.037Z,100278.00
2023-04-22T18:00:17.992Z,100283.53
2023-04-22T18:02:47.674Z,100280.09
2023-04-22T18:05:15.673Z,100279.63
2023-04-22T18:07:43.504Z,100273.44
2023-04-22T18:10:12.698Z,100283.63
2023-04-22T18:12:41.341Z,100280.19
2023-04-22T18:15:09.845Z,100285.94
2023-04-22T18:17:37.944Z,100280.78
2023-04-22T18:20:17.214Z,100280.78
2023-04-22T18:22:46.655Z,100286.06
2023-04-22T18:25:15.117Z,100281.56
2023-04-22T18:27:42.978Z,100282.81
2023-04-22T18:30:11.363Z,100273.84
2023-04-22T18:32:39.784Z,100285.94
2023-04-22T18:35:09.865Z,100282.31
2023-04-22T18:37:37.712Z,100274.63
2023-04-22T18:40:07.216Z,100278.41
2023-04-22T18:42:35.306Z,100278.81
2023-04-22T18:45:04.904Z,100281.78
2023-04-22T18:47:33.283Z,100291.31
2023-04-22T18:50:01.278Z,100294.25
2023-04-22T18:52:30.601Z,100294.25
2023-04-22T18:54:58.408Z,100296.34
2023-04-22T18:57:26.447Z,100299.50
2023-04-22T18:59:54.991Z,100306.09
2023-04-22T19:02:23.158Z,100308.19
2023-04-22T19:04:51.303Z,100307.50
2023-04-22T19:07:19.342Z,100305.81
2023-04-22T19:09:48.611Z,100303.91
2023-04-22T19:12:18.986Z,100304.28
2023-04-22T19:14:48.197Z,100324.00
2023-04-22T19:17:16.055Z,100326.09
2023-04-22T19:19:45.320Z,100339.25
2023-04-22T19:22:13.718Z,100342.53
2023-04-22T19:24:41.605Z,100340.16
2023-04-22T19:27:12.451Z,100343.28
2023-04-22T19:29:41.618Z,100344.25
2023-04-22T19:32:10.894Z,100353.28
2023-04-22T19:34:39.140Z,100356.59
2023-04-22T19:37:08.186Z,100358.38
2023-04-22T19:39:36.671Z,100355.34
2023-04-22T19:42:04.648Z,100365.19
2023-04-22T19:44:34.078Z,100372.34
2023-04-22T19:47:01.982Z,100366.19
2023-04-22T19:49:31.766Z,100369.50
2023-04-22T19:52:02.792Z,100368.34
2023-04-22T19:54:31.256Z,100370.97
2023-04-22T19:56:59.498Z,100364.25
2023-04-22T19:59:31.620Z,100366.50
2023-04-22T20:02:01.193Z,100373.78
2023-04-22T20:04:29.801Z,100370.56
2023-04-22T20:07:01.443Z,100370.91
2023-04-22T20:09:32.702Z,100376.41
2023-04-22T20:12:01.261Z,100382.16
2023-04-22T20:14:29.599Z,100379.22
2023-04-22T20:16:57.730Z,100384.91
2023-04-22T20:19:27.664Z,100380.44
2023-04-22T20:21:58.628Z,100380.81
2023-04-22T20:24:29.860Z,100382.91
2023-04-22T20:26:58.478Z,100377.25
2023-04-22T20:29:26.946Z,100380.19
2023-04-22T20:31:56.464Z,100384.13
2023-04-22T20:34:26.762Z,100381.56
2023-04-22T20:36:54.853Z,100384.53
2023-04-22T20:39:23.856Z,100384.69
2023-04-22T20:41:55.224Z,100388.50
2023-04-22T20:44:23.211Z,100382.44
2023-04-22T20:46:51.239Z,100386.44
2023-04-22T20:49:19.270Z,100392.31
2023-04-22T20:51:48.627Z,100399.72
2023-04-22T20:54:27.730Z,100397.50
2023-04-22T20:56:57.760Z,100405.25
2023-04-22T20:59:25.790Z,100410.09
2023-04-22T21:01:54.626Z,100415.81
2023-04-22T21:04:23.962Z,100407.88
2023-04-22T21:06:54.604Z,100410.81
2023-04-22T21:09:24.822Z,100418.59
2023-04-22T21:11:54.570Z,100418.91
2023-04-22T21:14:26.186Z,100424.56
2023-04-22T21:16:59.064Z,100421.13
2023-04-22T21:19:27.401Z,100424.44
2023-04-22T21:21:59.384Z,100432.69
2023-04-22T21:24:28.458Z,100425.13
2023-04-22T21:26:56.443Z,100424.94
2023-04-22T21:29:24.851Z,100423.41
2023-04-22T21:32:07.265Z,100427.19
2023-04-22T21:34:36.633Z,100421.84
2023-04-22T21:37:06.715Z,100425.47
2023-04-22T21:39:34.903Z,100423.25
2023-04-22T21:42:07.451Z,100428.94
2023-04-22T21:44:36.206Z,100431.34
2023-04-22T21:47:04.222Z,100434.44
2023-04-22T21:49:32.282Z,100440.81
2023-04-22T21:52:01.007Z,100431.88
2023-04-22T21:54:30.702Z,100441.16
2023-04-22T21:56:58.698Z,100436.00
2023-04-22T21:59:26.568Z,100447.22
2023-04-22T22:01:54.494Z,100441.88
2023-04-22T22:04:22.533Z,100448.56
2023-04-22T22:06:50.596Z,100450.63
2023-04-22T22:09:18.717Z,100444.44
2023-04-22T22:11:47.992Z,100446.34
2023-04-22T22:14:16.114Z,100443.94
2023-04-22T22:16:44.494Z,100445.13
2023-04-22T22:19:13.942Z,100455.47
2023-04-22T22:21:41.725Z,100451.16
2023-04-22T22:24:10.543Z,100455.09
2023-04-22T22:26:41.018Z,100455.28
2023-04-22T22:29:15.367Z,100463.53
2023-04-22T22:31:43.487Z,100458.56
2023-04-22T22:34:11.635Z,100460.28
2023-04-22T22:36:39.508Z,100455.97
2023-04-22T22:39:10.274Z,100457.84
2023-04-22T22:41:38.152Z,100458.00
2023-04-22T22:44:06.019Z,100460.97
2023-04-22T22:46:35.252Z,100468.16
2023-04-22T22:49:03.444Z,100462.16
2023-04-22T22:51:32.708Z,100465.94
2023-04-22T22:54:01.420Z,100477.81
2023-04-22T22:56:29.269Z,100470.91
2023-04-22T22:58:57.073Z,100469.22
2023-04-22T23:01:25.081Z,100474.03
2023-04-22T23:03:54.390Z,100467.66
2023-04-22T23:06:22.313Z,100473.44
2023-04-22T23:08:50.177Z,100470.00
2023-04-22T23:11:18.042Z,100469.34
2023-04-22T23:13:46.439Z,100462.97
2023-04-22T23:16:14.452Z,100464.00
2023-04-22T23:18:42.645Z,100458.66
2023-04-22T23:21:12.713Z,100454.00
2023-04-22T23:23:42.215Z,100456.91
2023-04-22T23:26:10.850Z,100464.47
2023-04-22T23:28:39.122Z,100461.91
2023-04-22T23:31:08.071Z,100448.16
2023-04-22T23:33:39.954Z,100443.69
2023-04-22T23:36:10.276Z,100438.50
2023-04-22T23:38:39.515Z,100448.31
2023-04-22T23:41:07.723Z,100444.00
2023-04-22T23:43:35.673Z,100435.91
2023-04-22T23:46:03.831Z,100435.03
2023-04-22T23:48:31.746Z,100443.50
2023-04-22T23:50:59.616Z,100443.66
2023-04-22T23:53:27.401Z,100437.44
2023-04-22T23:55:57.378Z,100433.66
2023-04-22T23:58:25.575Z,100431.25
